Dauntless Aviation
Greetings, Guest! To participate, [sign up for a free account] or [log in]
Airports Europe Portugal
LPPT
LIS

Lisboa

Lisbon, PORTUGAL

Airport Info
Edit

Location

Latitude / Longitude: 38°46'52"N / 9°8'9"W
  38°46.878'N / 9°8.154'W
  38.7813 / -9.1359

Nearby radio navigation aids

CP CAPARICA NDB. 31.5° 9.1nm from CP to field.
LAR ARRUDA NDB. 204.2° 13.7nm from LAR to field.
LIS LISBOA VOR/DME. 173.9° 6.5nm from LIS to field.

Runway Information

Runway 03 /21

Dimensions: 12484 x 148 ft.
Surface: ASP
 
Runway 03
Runway 21
Latitude: 38.766431 38.792319
Longitude: -9.1439 -9.130047
Elevation: 329 ft. 329 ft.
Runway true heading: 21.5 201.5
 

Runway 17 /35

Dimensions: 7874 x 148 ft.
Surface: ASP
 
Runway 17
Runway 35
Latitude: 38.786233 38.766331
Longitude: -9.137269 -9.131919
Elevation: 373 ft. 373 ft.
Runway true heading: 166.5 346.5
 

Instrument Procedures

  Parking Docking Aprons 20/ 22/ 30/ 40/ 41 and 42
  Parking Docking Aprons 14/ 70 and 80
  Parking Docking Chart Aprons 10/ 11/ 12/ 50 and 60
  Aerodrome Chart-2

Departure Procedures

  Ground Movement Chart Arrival/Departure Rwy 21
  Aerodrome Chart-1

Departure Procedures

  Ground Movement Chart Arrival/Departure Rwy 03

STARs (Standard Terminal Arrivals)

  STAR Rwy 03/35
  STAR RNAV Rwy 03/35
  STAR RNAV Rwy 21
  STAR RNAV Rwy 21
  STAR RNAV Rwy 03/35
  STAR RNAV Rwy 21
  RNAV STAR CDO Rwy 03
  RNAV STAR CDO Rwy 03
  STAR Rwy 21

IAPs (Instrument Approach Procedures)

  Visual Approach Chart
  ILS Rwy 03 CAT A-B-C-D
  Aerodrome Obstacle Chart Rwy 17/35
  Aerodrome Obstacle Chart Rwy 03
  Aerodrome Obstacle Chart Rwy 21
  ILS 1 Rwy 21 CAT A-B-C-D
  ILS-2 Rwy 21 CAT A-B-C-D
  DVOR DME Rwy 35 CAT A-B-C-D
  NDB Rwy 03 CAT A B C D
  L Rwy 21 CAT A-B-C-D
  Precision Approach Terrain Chart Rwy 21

Departure Procedures

  SID RNAV Rwy 03/35
  SID RNAV Rwy 21
  SID Rwy 03/35
  SID Rwy 21
Satellite photo at:
Airport distance calculator
From:
Weather Reports

METAR

LPPT

LPPT 010000Z 28004KT 230V320 9999 FEW008 BKN012 19/18 Q1021

TAF

LPPT
TAF LPPT 312300Z 0100/0206 VRB03KT 9999 SCT010 TEMPO 0100/0118 5000 RADZ BR SCT004 BKN008 PROB30 0100/0103 3000 TSRA FEW022CB PROB30 TEMPO 0103/0109 1200 DZ BR BKN002 BECMG 0109/0112 04007KT BECMG 0118/0120 35010KT FEW015
LPMT
6.3nm SE
TAF LPMT 312303Z 0100/0124 VRB02KT 9999 SCT025 PROB40 TEMPO 0103/0112 5000 SHRA SCT012 BKN020 BECMG 0110/0112 02005KT BECMG 0114/0116 35010KT
LPAR
7.8nm N
TAF LPAR 311705Z 3118/0103 19008KT 9999 FEW025 BECMG 3119/3121 FEW016 SCT025
LPST
8.7nm W
TAF LPST 311705Z 3118/0103 21008KT 9999 FEW018 SCT025
Safelog

 

Dauntless Aviation

© 2007-2014 Dauntless Aviation, all rights reserved
Information provided via PilotNav comes from a variety of official and unofficial data sources. As errors are possible, do not use PilotNav for primary flight planning purposes. Verify any information that you receive via PilotNav with current and canonical charts and other official documents. The material in this database is subject to database copyrights held by Dauntless Aviation and may not be copied without the express permission of Dauntless Aviation - licenses for use of part of all of this data are available for purchase; enquire via the Dauntless Aviation helpdesk. A number of mechanisms and markers exist in the database to protect against and identify infringement / copyright. Automated queries against this website are stictly prohibited, and all activity is logged and analyzed.